createdAt,value
2018-08-03T00:02:08.301Z,18.90
2018-08-03T00:04:36.766Z,18.57
2018-08-03T00:07:05.242Z,17.95
2018-08-03T00:09:33.722Z,19.25
2018-08-03T00:12:02.222Z,19.45
2018-08-03T00:14:30.694Z,19.80
2018-08-03T00:16:59.342Z,20.17
2018-08-03T00:19:28.281Z,21.55
2018-08-03T00:21:56.811Z,21.12
2018-08-03T00:24:25.320Z,21.45
2018-08-03T00:26:53.850Z,19.77
2018-08-03T00:29:22.322Z,19.00
2018-08-03T00:31:51.156Z,20.45
2018-08-03T00:34:19.663Z,20.05
2018-08-03T00:36:48.184Z,22.20
2018-08-03T00:39:16.682Z,21.97
2018-08-03T00:41:45.234Z,21.95
2018-08-03T00:44:13.760Z,19.48
2018-08-03T00:46:42.315Z,19.30
2018-08-03T00:49:10.818Z,19.92
2018-08-03T00:51:39.331Z,21.50
2018-08-03T00:54:07.831Z,20.62
2018-08-03T00:56:36.358Z,20.85
2018-08-03T00:59:04.846Z,19.35
2018-08-03T01:01:33.354Z,22.02
2018-08-03T01:04:01.956Z,22.10
2018-08-03T01:06:30.423Z,21.95
2018-08-03T01:08:58.882Z,24.47
2018-08-03T01:11:27.347Z,21.93
2018-08-03T01:13:55.791Z,21.33
2018-08-03T01:16:24.258Z,23.07
2018-08-03T01:18:53.087Z,21.87
2018-08-03T01:21:21.514Z,24.12
2018-08-03T01:23:49.998Z,22.75
2018-08-03T01:26:18.460Z,21.75
2018-08-03T01:28:46.922Z,22.67
2018-08-03T01:31:15.359Z,21.95
2018-08-03T01:33:43.809Z,19.50
2018-08-03T01:36:12.254Z,21.60
2018-08-03T01:38:40.724Z,23.22
2018-08-03T01:41:09.146Z,21.68
2018-08-03T01:43:37.595Z,21.93
2018-08-03T01:46:06.155Z,22.73
2018-08-03T01:48:34.610Z,23.30
2018-08-03T01:51:03.108Z,22.30
2018-08-03T01:53:31.571Z,22.05
2018-08-03T01:56:00.001Z,23.07
2018-08-03T01:58:28.446Z,21.77
2018-08-03T02:00:56.894Z,22.35
2018-08-03T02:03:25.402Z,24.10
2018-08-03T02:05:54.227Z,23.62
2018-08-03T02:08:22.702Z,20.02
2018-08-03T02:10:51.147Z,21.07
2018-08-03T02:13:19.595Z,20.95
2018-08-03T02:15:48.089Z,20.60
2018-08-03T02:18:16.894Z,21.40
2018-08-03T02:20:45.351Z,22.70
2018-08-03T02:23:13.815Z,19.60
2018-08-03T02:25:42.254Z,20.45
2018-08-03T02:28:10.763Z,22.15
2018-08-03T02:30:39.247Z,21.07
2018-08-03T02:33:07.790Z,22.30
2018-08-03T02:35:36.296Z,23.05
2018-08-03T02:38:04.815Z,21.33
2018-08-03T02:40:33.578Z,19.62
2018-08-03T02:43:02.108Z,19.40
2018-08-03T02:45:30.590Z,19.37
2018-08-03T02:47:58.783Z,18.73
2018-08-03T02:50:27.275Z,21.07
2018-08-03T02:52:55.798Z,21.57
2018-08-03T02:55:24.346Z,19.87
2018-08-03T02:57:52.859Z,20.62
2018-08-03T03:00:21.426Z,21.05
2018-08-03T03:02:49.938Z,20.05
2018-08-03T03:05:18.451Z,19.92
2018-08-03T03:07:46.959Z,21.87
2018-08-03T03:10:15.476Z,23.05
2018-08-03T03:12:44.030Z,24.25
2018-08-03T03:15:12.554Z,22.07
2018-08-03T03:17:41.003Z,21.00
2018-08-03T03:20:09.530Z,21.90
2018-08-03T03:22:37.999Z,21.15
2018-08-03T03:25:06.526Z,23.70
2018-08-03T03:27:34.999Z,22.37
2018-08-03T03:30:03.524Z,21.45
2018-08-03T03:32:32.105Z,27.73
2018-08-03T03:35:00.577Z,22.50
2018-08-03T03:37:29.068Z,22.98
2018-08-03T03:39:57.545Z,24.72
2018-08-03T03:42:26.014Z,25.57
2018-08-03T03:44:54.508Z,24.18
2018-08-03T03:47:22.967Z,23.62
2018-08-03T03:49:51.479Z,23.87
2018-08-03T03:52:19.951Z,24.98
2018-08-03T03:54:48.455Z,23.70
2018-08-03T03:57:16.938Z,24.60
2018-08-03T03:59:45.427Z,23.70
2018-08-03T04:02:14.074Z,21.45
2018-08-03T04:04:42.570Z,22.55
2018-08-03T04:07:11.048Z,24.02
2018-08-03T04:09:39.531Z,22.62
2018-08-03T04:12:08.022Z,19.75
2018-08-03T04:14:36.475Z,26.17
2018-08-03T04:17:05.046Z,23.85
2018-08-03T04:19:33.554Z,23.47
2018-08-03T04:22:02.093Z,24.80
2018-08-03T04:24:30.590Z,22.42
2018-08-03T04:26:59.088Z,22.05
2018-08-03T04:29:27.574Z,22.00
2018-08-03T04:31:56.330Z,22.35
2018-08-03T04:34:24.842Z,22.32
2018-08-03T04:36:53.365Z,21.65
2018-08-03T04:39:21.865Z,20.85
2018-08-03T04:41:50.370Z,21.93
2018-08-03T04:44:19.199Z,18.80
2018-08-03T04:46:47.727Z,19.50
2018-08-03T04:49:16.231Z,18.30
2018-08-03T04:51:44.747Z,17.57
2018-08-03T04:54:13.275Z,17.07
2018-08-03T04:56:41.790Z,18.25
2018-08-03T04:59:10.303Z,20.52
2018-08-03T05:01:38.845Z,20.00
2018-08-03T05:04:07.338Z,18.52
2018-08-03T05:06:35.879Z,17.65
2018-08-03T05:09:05.564Z,19.77
2018-08-03T05:11:34.094Z,19.55
2018-08-03T05:14:02.625Z,21.33
2018-08-03T05:16:31.144Z,18.05
2018-08-03T05:18:59.621Z,18.12
2018-08-03T05:21:28.113Z,18.82
2018-08-03T05:23:56.678Z,18.55
2018-08-03T05:26:25.226Z,17.05
2018-08-03T05:28:53.726Z,15.45
2018-08-03T05:31:22.243Z,14.20
2018-08-03T05:33:50.726Z,14.85
2018-08-03T05:36:19.296Z,14.73
2018-08-03T05:38:47.738Z,14.43
2018-08-03T05:41:16.250Z,15.05
2018-08-03T05:43:44.730Z,15.35
2018-08-03T05:46:13.218Z,17.15
2018-08-03T05:48:41.678Z,14.10
2018-08-03T05:51:10.203Z,12.85
2018-08-03T05:53:38.684Z,14.98
2018-08-03T05:56:07.193Z,14.10
2018-08-03T05:58:35.730Z,13.48
2018-08-03T06:01:04.300Z,15.38
2018-08-03T06:03:32.801Z,13.83
2018-08-03T06:06:01.354Z,15.32
2018-08-03T06:08:29.848Z,15.50
2018-08-03T06:10:58.426Z,14.23
2018-08-03T06:13:26.935Z,14.93
2018-08-03T06:15:55.432Z,15.70
2018-08-03T06:18:23.909Z,15.90
2018-08-03T06:20:52.378Z,16.15
2018-08-03T06:23:20.890Z,16.50
2018-08-03T06:25:49.347Z,14.35
2018-08-03T06:28:17.818Z,15.05
2018-08-03T06:30:46.334Z,14.85
2018-08-03T06:33:14.810Z,15.20
2018-08-03T06:35:43.303Z,13.95
2018-08-03T06:38:11.819Z,14.68
2018-08-03T06:40:40.255Z,13.60
2018-08-03T06:43:08.718Z,14.90
2018-08-03T06:45:37.167Z,14.63
2018-08-03T06:48:05.647Z,14.53
2018-08-03T06:50:34.146Z,13.78
2018-08-03T06:53:02.614Z,12.75
2018-08-03T06:55:31.099Z,13.48
2018-08-03T06:57:59.683Z,13.90
2018-08-03T07:00:28.159Z,13.35
2018-08-03T07:02:56.765Z,13.70
2018-08-03T07:05:25.174Z,14.20
2018-08-03T07:07:53.664Z,13.25
2018-08-03T07:10:22.114Z,15.78
2018-08-03T07:12:50.761Z,13.78
2018-08-03T07:15:19.235Z,12.10
2018-08-03T07:17:47.686Z,11.78
2018-08-03T07:20:16.217Z,13.15
2018-08-03T07:22:44.647Z,11.70
2018-08-03T07:25:13.118Z,12.37
2018-08-03T07:27:41.594Z,12.18
2018-08-03T07:30:10.074Z,13.20
2018-08-03T07:32:38.574Z,11.63
2018-08-03T07:35:07.069Z,11.57
2018-08-03T07:37:35.560Z,11.48
2018-08-03T07:40:04.095Z,11.68
2018-08-03T07:42:32.602Z,10.70
2018-08-03T07:45:01.091Z,11.80
2018-08-03T07:47:29.574Z,10.60
2018-08-03T07:49:58.045Z,10.08
2018-08-03T07:52:26.577Z,10.30
2018-08-03T07:54:55.394Z,9.98
2018-08-03T07:57:23.882Z,9.88
2018-08-03T07:59:52.374Z,9.23
2018-08-03T08:02:20.852Z,8.80
2018-08-03T08:04:49.363Z,9.80
2018-08-03T08:07:17.826Z,10.13
2018-08-03T08:09:46.319Z,9.50
2018-08-03T08:12:14.818Z,10.45
2018-08-03T08:14:43.354Z,10.50
2018-08-03T08:17:11.859Z,9.95
2018-08-03T08:19:40.516Z,9.05
2018-08-03T08:22:09.038Z,9.70
2018-08-03T08:24:37.570Z,9.13
2018-08-03T08:27:06.386Z,9.78
2018-08-03T08:29:34.889Z,9.15
2018-08-03T08:32:03.418Z,9.55
2018-08-03T08:34:31.939Z,10.43
2018-08-03T08:37:00.504Z,9.78
2018-08-03T08:39:28.966Z,10.68
2018-08-03T08:41:57.448Z,9.65
2018-08-03T08:44:25.980Z,10.25
2018-08-03T08:46:54.518Z,9.80
2018-08-03T08:49:23.023Z,9.40
2018-08-03T08:51:51.523Z,9.85
2018-08-03T08:54:20.032Z,9.63
2018-08-03T08:56:48.527Z,9.65
2018-08-03T08:59:17.041Z,9.33
2018-08-03T09:01:45.539Z,9.83
2018-08-03T09:04:14.069Z,9.55
2018-08-03T09:06:42.596Z,9.60
2018-08-03T09:09:12.051Z,9.05
2018-08-03T09:11:40.738Z,9.33
2018-08-03T09:14:09.239Z,8.80
2018-08-03T09:16:38.035Z,9.18
2018-08-03T09:19:06.553Z,9.70
2018-08-03T09:21:35.035Z,9.85
2018-08-03T09:24:03.512Z,9.95
2018-08-03T09:26:31.991Z,10.48
2018-08-03T09:29:00.471Z,9.75
2018-08-03T09:31:28.982Z,9.45
2018-08-03T09:33:57.449Z,9.33
2018-08-03T09:36:25.938Z,9.85
2018-08-03T09:38:54.425Z,10.18
2018-08-03T09:41:22.889Z,9.78
2018-08-03T09:43:51.363Z,8.33
2018-08-03T09:46:19.822Z,8.58
2018-08-03T09:48:48.326Z,9.25
2018-08-03T09:51:16.782Z,9.45
2018-08-03T09:53:45.239Z,9.58
2018-08-03T09:56:13.706Z,9.48
2018-08-03T09:58:42.154Z,8.58
2018-08-03T10:01:11.144Z,8.60
2018-08-03T10:03:40.239Z,8.85
2018-08-03T10:06:08.962Z,8.43
2018-08-03T10:08:37.813Z,9.58
2018-08-03T10:11:06.699Z,8.45
2018-08-03T10:13:35.350Z,8.35
2018-08-03T10:16:03.870Z,8.15
2018-08-03T10:18:32.357Z,8.43
2018-08-03T10:21:00.902Z,8.58
2018-08-03T10:23:29.330Z,8.63
2018-08-03T10:25:57.825Z,8.30
2018-08-03T10:28:25.961Z,8.23
2018-08-03T10:30:54.463Z,7.40
2018-08-03T10:33:22.946Z,7.53
2018-08-03T10:35:51.435Z,8.20
2018-08-03T10:38:19.895Z,7.42
2018-08-03T10:40:48.378Z,7.72
2018-08-03T10:43:16.974Z,8.00
2018-08-03T10:45:45.381Z,7.45
2018-08-03T10:48:13.837Z,7.55
2018-08-03T10:50:42.320Z,7.65
2018-08-03T10:53:11.116Z,7.80
2018-08-03T10:55:39.314Z,7.28
2018-08-03T10:58:07.804Z,7.75
2018-08-03T11:00:36.327Z,7.62
2018-08-03T11:03:04.852Z,7.72
2018-08-03T11:05:33.410Z,7.72
2018-08-03T11:08:01.876Z,8.03
2018-08-03T11:10:30.379Z,8.50
2018-08-03T11:12:58.834Z,7.20
2018-08-03T11:15:27.354Z,7.58
2018-08-03T11:17:55.866Z,7.58
2018-08-03T11:20:24.491Z,7.92
2018-08-03T11:22:53.004Z,8.63
2018-08-03T11:25:21.534Z,8.83
2018-08-03T11:27:50.018Z,8.43
2018-08-03T11:30:18.552Z,8.73
2018-08-03T11:32:47.083Z,7.60
2018-08-03T11:35:15.697Z,8.10
2018-08-03T11:37:44.282Z,8.43
2018-08-03T11:40:12.774Z,8.33
2018-08-03T11:42:41.262Z,8.08
2018-08-03T11:45:10.559Z,8.68
2018-08-03T11:47:39.177Z,8.08
2018-08-03T11:50:09.042Z,8.18
2018-08-03T11:52:37.599Z,8.15
2018-08-03T11:55:06.156Z,8.33
2018-08-03T11:57:34.693Z,7.97
2018-08-03T12:00:04.111Z,9.03
2018-08-03T12:02:32.626Z,8.23
2018-08-03T12:05:01.113Z,8.73
2018-08-03T12:07:29.621Z,7.85
2018-08-03T12:09:58.085Z,8.25
2018-08-03T12:12:26.908Z,8.18
2018-08-03T12:14:55.396Z,8.18
2018-08-03T12:17:23.910Z,8.28
2018-08-03T12:19:52.417Z,8.53
2018-08-03T12:22:20.916Z,7.78
2018-08-03T12:24:49.441Z,7.33
2018-08-03T12:27:17.990Z,8.83
2018-08-03T12:29:46.457Z,8.20
2018-08-03T12:32:14.966Z,7.80
2018-08-03T12:34:43.474Z,8.03
2018-08-03T12:37:11.999Z,8.15
2018-08-03T12:39:40.505Z,8.03
2018-08-03T12:42:09.022Z,7.95
2018-08-03T12:44:37.506Z,7.80
2018-08-03T12:47:06.018Z,7.65
2018-08-03T12:49:34.501Z,7.70
2018-08-03T12:52:03.050Z,7.53
2018-08-03T12:54:31.539Z,7.10
2018-08-03T12:57:00.450Z,7.47
2018-08-03T12:59:28.969Z,7.05
2018-08-03T13:01:57.474Z,7.65
2018-08-03T13:04:25.963Z,7.70
2018-08-03T13:06:54.462Z,7.97
2018-08-03T13:09:22.954Z,7.47
2018-08-03T13:11:51.430Z,7.83
2018-08-03T13:14:19.923Z,7.87
2018-08-03T13:16:48.490Z,7.35
2018-08-03T13:19:16.987Z,7.17
2018-08-03T13:21:45.446Z,7.45
2018-08-03T13:24:13.920Z,7.22
2018-08-03T13:26:42.426Z,7.25
2018-08-03T13:29:10.881Z,8.60
2018-08-03T13:31:39.379Z,8.00
2018-08-03T13:34:07.878Z,7.30
2018-08-03T13:36:36.355Z,7.28
2018-08-03T13:39:07.958Z,7.70
2018-08-03T13:41:36.735Z,7.28
2018-08-03T13:44:05.219Z,7.70
2018-08-03T13:46:33.680Z,7.20
2018-08-03T13:49:02.138Z,7.17
2018-08-03T13:51:30.611Z,7.20
2018-08-03T13:53:59.099Z,7.53
2018-08-03T13:56:27.546Z,7.35
2018-08-03T13:58:55.995Z,7.62
2018-08-03T14:01:35.894Z,7.83
2018-08-03T14:04:04.491Z,7.40
2018-08-03T14:06:32.921Z,6.75
2018-08-03T14:09:01.383Z,7.87
2018-08-03T14:11:29.874Z,7.40
2018-08-03T14:13:58.370Z,7.67
2018-08-03T14:16:26.866Z,6.85
2018-08-03T14:18:55.331Z,7.80
2018-08-03T14:21:23.830Z,6.90
2018-08-03T14:23:52.342Z,6.92
2018-08-03T14:26:20.834Z,7.70
2018-08-03T14:28:49.342Z,7.53
2018-08-03T14:31:17.835Z,8.13
2018-08-03T14:33:46.306Z,8.25
2018-08-03T14:36:14.762Z,7.97
2018-08-03T14:38:43.234Z,7.90
2018-08-03T14:41:11.737Z,8.10
2018-08-03T14:43:40.206Z,8.25
2018-08-03T14:46:08.674Z,7.87
2018-08-03T14:48:37.142Z,8.15
2018-08-03T14:51:05.730Z,9.15
2018-08-03T14:53:34.710Z,8.20
2018-08-03T14:56:03.199Z,8.45
2018-08-03T14:58:31.704Z,8.05
2018-08-03T15:01:00.204Z,7.75
2018-08-03T15:03:28.682Z,8.15
2018-08-03T15:05:57.151Z,8.40
2018-08-03T15:08:25.632Z,8.50
2018-08-03T15:10:54.135Z,8.30
2018-08-03T15:13:22.634Z,8.43
2018-08-03T15:15:51.200Z,8.43
2018-08-03T15:18:19.718Z,8.35
2018-08-03T15:20:48.182Z,8.38
2018-08-03T15:23:16.670Z,8.60
2018-08-03T15:25:45.141Z,8.23
2018-08-03T15:28:13.608Z,8.28
2018-08-03T15:30:42.142Z,8.48
2018-08-03T15:33:10.630Z,8.20
2018-08-03T15:35:39.134Z,7.85
2018-08-03T15:38:07.717Z,8.65
2018-08-03T15:40:36.221Z,7.83
2018-08-03T15:43:04.697Z,7.50
2018-08-03T15:45:33.270Z,8.70
2018-08-03T15:48:01.744Z,8.10
2018-08-03T15:50:30.233Z,7.87
2018-08-03T15:52:58.746Z,8.53
2018-08-03T15:55:27.235Z,8.83
2018-08-03T15:57:55.686Z,8.55
2018-08-03T16:00:24.186Z,8.73
2018-08-03T16:02:52.674Z,8.40
2018-08-03T16:05:21.193Z,7.97
2018-08-03T16:07:49.885Z,8.85
2018-08-03T16:10:18.390Z,8.68
2018-08-03T16:12:46.858Z,7.75
2018-08-03T16:15:15.083Z,8.43
2018-08-03T16:17:43.605Z,9.05
2018-08-03T16:20:12.099Z,8.60
2018-08-03T16:22:40.727Z,9.00
2018-08-03T16:25:09.287Z,9.30
2018-08-03T16:27:37.780Z,8.63
2018-08-03T16:30:07.917Z,9.10
2018-08-03T16:32:36.452Z,9.00
2018-08-03T16:35:05.201Z,9.25
2018-08-03T16:37:33.697Z,9.55
2018-08-03T16:40:02.183Z,8.35
2018-08-03T16:42:30.704Z,8.93
2018-08-03T16:44:59.215Z,8.30
2018-08-03T16:47:27.694Z,9.23
2018-08-03T16:49:56.191Z,9.08
2018-08-03T16:52:24.702Z,8.08
2018-08-03T16:54:53.318Z,8.68
2018-08-03T16:57:21.820Z,8.10
2018-08-03T16:59:50.302Z,9.40
2018-08-03T17:02:18.786Z,9.40
2018-08-03T17:04:47.283Z,8.98
2018-08-03T17:07:15.834Z,8.65
2018-08-03T17:09:44.305Z,8.55
2018-08-03T17:12:12.799Z,7.85
2018-08-03T17:14:41.306Z,8.38
2018-08-03T17:17:09.831Z,8.23
2018-08-03T17:19:38.299Z,6.87
2018-08-03T17:22:06.818Z,6.78
2018-08-03T17:24:35.277Z,7.03
2018-08-03T17:27:03.794Z,6.75
2018-08-03T17:29:32.261Z,6.85
2018-08-03T17:32:00.776Z,6.60
2018-08-03T17:34:29.257Z,5.78
2018-08-03T17:36:57.766Z,5.85
2018-08-03T17:39:26.259Z,7.08
2018-08-03T17:41:54.738Z,5.62
2018-08-03T17:44:24.109Z,5.90
2018-08-03T17:46:52.671Z,5.22
2018-08-03T17:49:21.151Z,5.70
2018-08-03T17:51:50.349Z,5.65
2018-08-03T17:54:18.843Z,5.53
2018-08-03T17:56:47.362Z,6.20
2018-08-03T17:59:15.853Z,6.22
2018-08-03T18:01:44.439Z,7.05
2018-08-03T18:04:12.922Z,6.92
2018-08-03T18:06:41.503Z,6.50
2018-08-03T18:09:10.015Z,5.47
2018-08-03T18:11:38.554Z,6.25
2018-08-03T18:14:07.074Z,6.50
2018-08-03T18:16:35.580Z,26.77
2018-08-03T18:19:04.214Z,7.75
2018-08-03T18:21:32.758Z,11.05
2018-08-03T18:24:01.242Z,7.05
2018-08-03T18:26:29.697Z,6.15
2018-08-03T18:28:58.497Z,6.50
2018-08-03T18:31:26.983Z,6.72
2018-08-03T18:33:55.450Z,6.58
2018-08-03T18:36:23.930Z,6.60
2018-08-03T18:38:52.866Z,6.95
2018-08-03T18:41:21.386Z,6.95
2018-08-03T18:43:49.958Z,7.10
2018-08-03T18:46:18.936Z,6.17
2018-08-03T18:48:47.366Z,7.33
2018-08-03T18:51:15.858Z,6.20
2018-08-03T18:53:44.314Z,6.60
2018-08-03T18:56:12.827Z,7.05
2018-08-03T18:58:41.315Z,7.37
2018-08-03T19:01:09.808Z,7.55
2018-08-03T19:03:38.294Z,7.05
2018-08-03T19:06:06.790Z,6.95
2018-08-03T19:08:35.286Z,7.67
2018-08-03T19:11:03.730Z,7.50
2018-08-03T19:13:32.691Z,7.95
2018-08-03T19:16:01.202Z,8.20
2018-08-03T19:18:29.701Z,8.30
2018-08-03T19:20:58.203Z,7.95
2018-08-03T19:23:26.722Z,7.85
2018-08-03T19:25:55.218Z,8.10
2018-08-03T19:28:23.760Z,7.92
2018-08-03T19:30:52.270Z,7.95
2018-08-03T19:33:20.771Z,8.75
2018-08-03T19:35:49.290Z,8.40
2018-08-03T19:38:17.783Z,8.48
2018-08-03T19:40:46.272Z,8.53
2018-08-03T19:43:14.773Z,7.83
2018-08-03T19:45:43.254Z,7.95
2018-08-03T19:48:11.747Z,7.80
2018-08-03T19:50:40.611Z,8.55
2018-08-03T19:53:09.190Z,8.30
2018-08-03T19:55:37.710Z,8.30
2018-08-03T19:58:06.242Z,8.25
2018-08-03T20:00:34.804Z,8.50
2018-08-03T20:03:03.310Z,8.58
2018-08-03T20:05:31.849Z,9.35
2018-08-03T20:08:00.373Z,37.30
2018-08-03T20:10:28.895Z,9.88
2018-08-03T20:12:57.433Z,8.75
2018-08-03T20:15:25.928Z,8.83
2018-08-03T20:17:54.447Z,8.45
2018-08-03T20:20:22.937Z,8.98
2018-08-03T20:22:51.474Z,8.75
2018-08-03T20:25:19.965Z,9.95
2018-08-03T20:27:48.979Z,9.10
2018-08-03T20:30:17.510Z,9.10
2018-08-03T20:32:46.043Z,12.33
2018-08-03T20:35:14.515Z,11.43
2018-08-03T20:37:43.032Z,10.55
2018-08-03T20:40:11.508Z,10.63
2018-08-03T20:42:40.002Z,10.23
2018-08-03T20:45:08.555Z,9.90
2018-08-03T20:47:37.050Z,9.93
2018-08-03T20:50:05.611Z,10.40
2018-08-03T20:52:34.106Z,10.43
2018-08-03T20:55:02.602Z,9.85
2018-08-03T20:57:31.057Z,10.65
2018-08-03T20:59:59.550Z,10.05
2018-08-03T21:02:28.023Z,10.23
2018-08-03T21:04:56.572Z,10.20
2018-08-03T21:07:25.046Z,10.90
2018-08-03T21:09:53.517Z,9.13
2018-08-03T21:12:21.975Z,9.45
2018-08-03T21:14:50.475Z,9.33
2018-08-03T21:17:19.006Z,10.10
2018-08-03T21:19:47.538Z,10.30
2018-08-03T21:22:16.028Z,9.83
2018-08-03T21:24:44.527Z,9.45
2018-08-03T21:27:13.014Z,9.60
2018-08-03T21:29:41.527Z,10.35
2018-08-03T21:32:10.027Z,9.28
2018-08-03T21:34:38.518Z,11.00
2018-08-03T21:37:07.016Z,11.08
2018-08-03T21:39:35.515Z,10.80
2018-08-03T21:42:04.030Z,9.93
2018-08-03T21:44:32.531Z,10.48
2018-08-03T21:47:01.004Z,10.90
2018-08-03T21:49:29.186Z,10.00
2018-08-03T21:51:57.701Z,10.43
2018-08-03T21:54:26.225Z,11.18
2018-08-03T21:56:54.733Z,11.05
2018-08-03T21:59:23.252Z,10.82
2018-08-03T22:01:51.752Z,11.53
2018-08-03T22:04:20.245Z,10.03
2018-08-03T22:06:48.755Z,10.82
2018-08-03T22:09:16.934Z,10.80
2018-08-03T22:11:45.407Z,11.12
2018-08-03T22:14:13.915Z,10.72
2018-08-03T22:16:42.403Z,10.72
2018-08-03T22:19:10.886Z,9.98
2018-08-03T22:21:39.345Z,11.30
2018-08-03T22:24:07.881Z,11.40
2018-08-03T22:26:36.336Z,11.57
2018-08-03T22:29:04.814Z,10.82
2018-08-03T22:31:33.290Z,11.85
2018-08-03T22:34:01.774Z,11.22
2018-08-03T22:36:30.243Z,10.18
2018-08-03T22:39:00.268Z,10.85
2018-08-03T22:41:28.754Z,11.33
2018-08-03T22:43:58.137Z,11.22
2018-08-03T22:46:26.607Z,12.50
2018-08-03T22:48:55.058Z,12.95
2018-08-03T22:51:23.555Z,13.50
2018-08-03T22:53:52.041Z,14.75
2018-08-03T22:56:20.536Z,14.60
2018-08-03T22:58:48.982Z,14.10
2018-08-03T23:01:17.473Z,14.95
2018-08-03T23:03:45.949Z,14.95
2018-08-03T23:06:14.502Z,16.15
2018-08-03T23:08:42.967Z,15.15
2018-08-03T23:11:11.492Z,14.78
2018-08-03T23:13:39.971Z,13.18
2018-08-03T23:16:08.526Z,14.28
2018-08-03T23:18:36.971Z,13.48
2018-08-03T23:21:05.462Z,14.45
2018-08-03T23:23:33.933Z,14.70
2018-08-03T23:26:02.428Z,13.68
2018-08-03T23:28:30.899Z,15.80
2018-08-03T23:30:59.382Z,15.95
2018-08-03T23:33:27.851Z,15.80
2018-08-03T23:35:56.333Z,15.45
2018-08-03T23:38:24.801Z,15.20
2018-08-03T23:40:53.262Z,16.10
2018-08-03T23:43:21.756Z,15.80
2018-08-03T23:45:50.270Z,14.85
2018-08-03T23:48:18.740Z,15.72
2018-08-03T23:50:47.219Z,14.95
2018-08-03T23:53:15.714Z,15.80
2018-08-03T23:55:44.228Z,15.32
2018-08-03T23:58:12.690Z,16.23
